createdAt,value
2018-09-17T00:01:12.968Z,13.10
2018-09-17T00:03:40.915Z,13.50
2018-09-17T00:06:09.315Z,15.73
2018-09-17T00:08:37.361Z,14.87
2018-09-17T00:11:05.375Z,15.30
2018-09-17T00:13:33.468Z,15.10
2018-09-17T00:16:01.435Z,16.63
2018-09-17T00:18:29.799Z,15.40
2018-09-17T00:20:57.901Z,16.13
2018-09-17T00:23:26.789Z,16.33
2018-09-17T00:25:54.805Z,16.73
2018-09-17T00:28:22.869Z,13.00
2018-09-17T00:30:51.605Z,16.20
2018-09-17T00:33:19.609Z,17.27
2018-09-17T00:35:47.565Z,15.30
2018-09-17T00:38:15.650Z,14.70
2018-09-17T00:40:43.684Z,14.80
2018-09-17T00:43:11.687Z,13.80
2018-09-17T00:45:39.616Z,15.57
2018-09-17T00:48:07.681Z,15.07
2018-09-17T00:50:36.190Z,16.77
2018-09-17T00:53:04.156Z,16.43
2018-09-17T00:55:32.183Z,15.67
2018-09-17T00:58:00.282Z,16.93
2018-09-17T01:00:29.273Z,16.00
2018-09-17T01:02:57.328Z,15.30
2018-09-17T01:05:26.118Z,16.73
2018-09-17T01:07:54.137Z,15.93
2018-09-17T01:10:22.133Z,18.70
2018-09-17T01:12:50.183Z,15.87
2018-09-17T01:15:18.145Z,17.63
2018-09-17T01:17:46.194Z,15.60
2018-09-17T01:20:15.093Z,18.03
2018-09-17T01:22:43.231Z,19.13
2018-09-17T01:25:11.370Z,13.90
2018-09-17T01:27:39.480Z,15.33
2018-09-17T01:30:07.472Z,15.10
2018-09-17T01:32:35.527Z,16.57
2018-09-17T01:35:03.674Z,16.83
2018-09-17T01:37:31.597Z,17.17
2018-09-17T01:39:59.581Z,16.27
2018-09-17T01:42:27.596Z,16.17
2018-09-17T01:44:55.709Z,16.77
2018-09-17T01:47:23.672Z,17.33
2018-09-17T01:49:51.702Z,16.07
2018-09-17T01:52:19.666Z,16.67
2018-09-17T01:54:48.116Z,16.60
2018-09-17T01:57:16.258Z,17.90
2018-09-17T01:59:44.305Z,16.33
2018-09-17T02:02:12.357Z,18.27
2018-09-17T02:04:40.316Z,17.07
2018-09-17T02:07:08.516Z,17.60
2018-09-17T02:09:41.121Z,16.73
2018-09-17T02:12:10.951Z,19.40
2018-09-17T02:14:39.437Z,16.60
2018-09-17T02:17:07.605Z,17.77
2018-09-17T02:19:35.939Z,19.63
2018-09-17T02:22:03.988Z,19.67
2018-09-17T02:24:32.005Z,17.13
2018-09-17T02:27:00.053Z,17.07
2018-09-17T02:29:28.077Z,18.77
2018-09-17T02:31:56.053Z,16.30
2018-09-17T02:34:24.204Z,18.30
2018-09-17T02:36:52.491Z,18.53
2018-09-17T02:39:20.589Z,17.30
2018-09-17T02:41:48.612Z,17.10
2018-09-17T02:44:16.844Z,18.07
2018-09-17T02:46:44.828Z,16.53
2018-09-17T02:49:13.614Z,14.80
2018-09-17T02:51:42.223Z,16.53
2018-09-17T02:54:10.204Z,15.20
2018-09-17T02:56:38.202Z,15.97
2018-09-17T02:59:06.345Z,16.20
2018-09-17T03:01:35.391Z,15.93
2018-09-17T03:04:03.357Z,17.60
2018-09-17T03:06:31.756Z,20.73
2018-09-17T03:09:00.686Z,19.57
2018-09-17T03:11:28.761Z,19.07
2018-09-17T03:13:56.737Z,16.00
2018-09-17T03:16:24.676Z,17.90
2018-09-17T03:18:55.004Z,18.03
2018-09-17T03:21:22.945Z,17.50
2018-09-17T03:23:51.017Z,17.50
2018-09-17T03:26:19.422Z,17.90
2018-09-17T03:28:47.448Z,18.33
2018-09-17T03:31:15.450Z,16.70
2018-09-17T03:33:43.450Z,16.80
2018-09-17T03:36:11.479Z,17.50
2018-09-17T03:38:46.452Z,16.50
2018-09-17T03:41:15.013Z,16.50
2018-09-17T03:43:44.713Z,16.43
2018-09-17T03:46:12.758Z,18.00
2018-09-17T03:48:41.894Z,20.73
2018-09-17T03:51:10.758Z,17.80
2018-09-17T03:53:38.988Z,17.40
2018-09-17T03:56:07.085Z,16.20
2018-09-17T03:58:35.972Z,16.03
2018-09-17T04:01:04.289Z,16.77
2018-09-17T04:03:32.288Z,15.73
2018-09-17T04:06:00.310Z,15.33
2018-09-17T04:08:30.904Z,17.17
2018-09-17T04:10:58.924Z,17.17
2018-09-17T04:13:26.981Z,17.40
2018-09-17T04:15:55.060Z,16.77
2018-09-17T04:18:23.153Z,16.30
2018-09-17T04:20:51.065Z,17.57
2018-09-17T04:23:24.491Z,18.03
2018-09-17T04:25:52.617Z,18.47
2018-09-17T04:28:20.645Z,18.20
2018-09-17T04:30:48.702Z,16.13
2018-09-17T04:33:16.806Z,17.27
2018-09-17T04:35:44.869Z,16.33
2018-09-17T04:38:13.061Z,17.73
2018-09-17T04:40:41.111Z,17.00
2018-09-17T04:43:09.159Z,17.20
2018-09-17T04:45:37.580Z,16.37
2018-09-17T04:48:05.789Z,18.97
2018-09-17T04:50:33.972Z,17.53
2018-09-17T04:53:02.134Z,19.90
2018-09-17T04:55:30.549Z,18.93
2018-09-17T04:57:59.164Z,19.27
2018-09-17T05:00:27.259Z,21.93
2018-09-17T05:02:55.301Z,18.90
2018-09-17T05:05:23.347Z,21.20
2018-09-17T05:07:51.457Z,22.73
2018-09-17T05:10:19.492Z,19.30
2018-09-17T05:12:47.737Z,17.70
2018-09-17T05:15:15.771Z,17.40
2018-09-17T05:17:43.692Z,18.97
2018-09-17T05:20:11.812Z,20.43
2018-09-17T05:22:39.856Z,21.77
2018-09-17T05:25:08.357Z,19.50
2018-09-17T05:27:36.776Z,21.53
2018-09-17T05:30:05.940Z,17.20
2018-09-17T05:32:34.329Z,20.93
2018-09-17T05:35:02.570Z,23.37
2018-09-17T05:37:30.822Z,16.77
2018-09-17T05:39:58.980Z,19.93
2018-09-17T05:42:27.246Z,18.33
2018-09-17T05:44:55.248Z,19.47
2018-09-17T05:47:23.275Z,18.47
2018-09-17T05:49:52.945Z,16.67
2018-09-17T05:52:21.104Z,18.27
2018-09-17T05:54:49.872Z,19.00
2018-09-17T05:57:17.905Z,18.97
2018-09-17T05:59:45.952Z,18.53
2018-09-17T06:02:14.013Z,22.43
2018-09-17T06:04:42.116Z,21.13
2018-09-17T06:07:10.098Z,20.17
2018-09-17T06:09:38.221Z,19.13
2018-09-17T06:12:06.332Z,19.70
2018-09-17T06:14:34.579Z,20.23
2018-09-17T06:17:02.617Z,19.00
2018-09-17T06:19:30.778Z,17.87
2018-09-17T06:21:58.840Z,18.90
2018-09-17T06:24:27.154Z,18.63
2018-09-17T06:26:55.272Z,18.10
2018-09-17T06:29:23.377Z,21.80
2018-09-17T06:31:51.509Z,24.87
2018-09-17T06:34:19.497Z,19.53
2018-09-17T06:36:48.522Z,21.10
2018-09-17T06:39:16.728Z,20.70
2018-09-17T06:41:44.817Z,20.77
2018-09-17T06:44:13.336Z,22.60
2018-09-17T06:46:41.515Z,21.20
2018-09-17T06:49:10.645Z,20.80
2018-09-17T06:51:39.805Z,27.30
2018-09-17T06:54:07.913Z,22.67
2018-09-17T06:56:35.860Z,19.40
2018-09-17T06:59:03.928Z,20.60
2018-09-17T07:01:31.982Z,21.40
2018-09-17T07:04:00.005Z,18.30
2018-09-17T07:06:28.700Z,23.20
2018-09-17T07:08:56.760Z,23.20
2018-09-17T07:11:24.800Z,23.20
2018-09-17T07:13:53.772Z,22.13
2018-09-17T07:16:21.872Z,23.40
2018-09-17T07:18:50.936Z,24.87
2018-09-17T07:21:18.953Z,22.97
2018-09-17T07:23:46.918Z,29.50
2018-09-17T07:26:15.082Z,27.77
2018-09-17T07:28:43.189Z,25.17
2018-09-17T07:31:11.201Z,26.10
2018-09-17T07:33:39.288Z,27.27
2018-09-17T07:36:07.374Z,27.10
2018-09-17T07:38:35.566Z,23.43
2018-09-17T07:41:03.649Z,26.17
2018-09-17T07:43:31.739Z,26.37
2018-09-17T07:45:59.789Z,24.33
2018-09-17T07:48:27.924Z,26.00
2018-09-17T07:50:56.244Z,28.20
2018-09-17T07:53:24.405Z,28.20
2018-09-17T07:55:52.405Z,26.57
2018-09-17T07:58:20.449Z,27.30
2018-09-17T08:00:48.620Z,28.73
2018-09-17T08:03:16.617Z,25.90
2018-09-17T08:05:44.875Z,26.00
2018-09-17T08:08:12.814Z,26.43
2018-09-17T08:10:40.899Z,26.67
2018-09-17T08:13:08.928Z,24.03
2018-09-17T08:15:36.996Z,28.30
2018-09-17T08:18:05.117Z,28.07
2018-09-17T08:20:33.175Z,23.60
2018-09-17T08:23:01.164Z,24.50
2018-09-17T08:25:29.323Z,26.60
2018-09-17T08:27:57.372Z,28.80
2018-09-17T08:30:25.500Z,26.60
2018-09-17T08:32:53.611Z,28.40
2018-09-17T08:35:21.716Z,28.57
2018-09-17T08:37:49.756Z,26.97
2018-09-17T08:40:17.721Z,26.10
2018-09-17T08:42:46.389Z,27.93
2018-09-17T08:45:15.870Z,26.27
2018-09-17T08:47:43.828Z,30.23
2018-09-17T08:50:14.853Z,26.53
2018-09-17T08:52:44.204Z,29.07
2018-09-17T08:55:16.631Z,25.53
2018-09-17T08:59:54.626Z,27.13
2018-09-17T09:02:28.164Z,26.00
2018-09-17T09:05:00.678Z,25.77
2018-09-17T09:07:31.157Z,24.17
2018-09-17T09:10:04.588Z,24.60
2018-09-17T09:12:38.480Z,24.00
2018-09-17T09:15:12.182Z,25.17
2018-09-17T09:17:40.291Z,26.07
2018-09-17T09:20:08.514Z,22.10
2018-09-17T09:22:36.601Z,23.70
2018-09-17T09:25:04.841Z,22.90
2018-09-17T09:27:32.951Z,21.93
2018-09-17T09:30:00.918Z,22.20
2018-09-17T09:32:28.907Z,20.70
2018-09-17T09:34:56.908Z,23.10
2018-09-17T09:37:25.149Z,22.70
2018-09-17T09:39:53.124Z,20.80
2018-09-17T09:42:21.153Z,18.77
2018-09-17T09:44:50.046Z,18.83
2018-09-17T09:47:17.994Z,21.33
2018-09-17T09:49:46.047Z,19.87
2018-09-17T09:52:14.998Z,18.23
2018-09-17T09:54:43.150Z,20.90
2018-09-17T09:57:11.250Z,23.17
2018-09-17T09:59:39.548Z,20.60
2018-09-17T10:02:13.041Z,19.73
2018-09-17T10:04:41.020Z,19.97
2018-09-17T10:07:09.039Z,20.33
2018-09-17T10:09:42.424Z,21.57
2018-09-17T10:12:16.077Z,19.10
2018-09-17T10:14:49.773Z,20.03
2018-09-17T10:17:23.309Z,19.23
2018-09-17T10:19:52.280Z,19.27
2018-09-17T10:22:20.735Z,19.30
2018-09-17T10:24:48.834Z,19.83
2018-09-17T10:27:17.529Z,18.20
2018-09-17T10:29:46.220Z,16.70
2018-09-17T10:32:14.444Z,15.87
2018-09-17T10:34:42.798Z,21.07
2018-09-17T10:37:11.360Z,18.63
2018-09-17T10:39:39.428Z,17.13
2018-09-17T10:42:07.541Z,18.33
2018-09-17T10:44:35.722Z,20.03
2018-09-17T10:47:04.350Z,18.80
2018-09-17T10:49:32.308Z,17.00
2018-09-17T10:52:00.986Z,16.63
2018-09-17T10:54:29.028Z,18.63
2018-09-17T10:56:57.017Z,15.23
2018-09-17T10:59:25.046Z,17.30
2018-09-17T11:01:53.121Z,17.90
2018-09-17T11:04:21.132Z,17.37
2018-09-17T11:06:49.117Z,18.07
2018-09-17T11:09:17.083Z,14.87
2018-09-17T11:11:46.061Z,17.67
2018-09-17T11:14:14.050Z,16.77
2018-09-17T11:16:42.044Z,16.60
2018-09-17T11:19:10.000Z,18.90
2018-09-17T11:21:38.512Z,18.90
2018-09-17T11:24:07.167Z,18.57
2018-09-17T11:26:35.206Z,16.80
2018-09-17T11:29:03.253Z,17.87
2018-09-17T11:31:31.724Z,17.53
2018-09-17T11:34:00.585Z,15.37
2018-09-17T11:36:28.605Z,16.73
2018-09-17T11:38:56.626Z,16.43
2018-09-17T11:41:25.564Z,13.57
2018-09-17T11:43:53.657Z,14.10
2018-09-17T11:46:21.666Z,17.37
2018-09-17T11:48:49.727Z,16.20
2018-09-17T11:51:17.877Z,16.23
2018-09-17T11:53:45.912Z,15.40
2018-09-17T11:56:13.893Z,15.10
2018-09-17T11:58:41.893Z,12.73
2018-09-17T12:01:15.265Z,17.13
2018-09-17T12:03:49.019Z,14.30
2018-09-17T12:06:23.497Z,14.70
2018-09-17T12:08:51.564Z,15.60
2018-09-17T12:11:19.652Z,14.40
2018-09-17T12:13:47.606Z,12.73
2018-09-17T12:16:15.793Z,14.57
2018-09-17T12:18:44.624Z,13.90
2018-09-17T12:21:12.638Z,14.50
2018-09-17T12:23:40.714Z,12.57
2018-09-17T12:26:08.847Z,13.43
2018-09-17T12:28:36.920Z,13.40
2018-09-17T12:31:04.941Z,13.73
2018-09-17T12:33:34.225Z,12.03
2018-09-17T12:36:02.289Z,13.33
2018-09-17T12:38:30.438Z,13.27
2018-09-17T12:40:58.456Z,12.73
2018-09-17T12:43:26.558Z,15.23
2018-09-17T12:45:54.728Z,14.43
2018-09-17T12:48:22.865Z,14.10
2018-09-17T12:50:51.987Z,16.00
2018-09-17T12:53:20.089Z,12.80
2018-09-17T12:55:48.317Z,14.70
2018-09-17T12:58:16.553Z,14.30
2018-09-17T13:00:44.697Z,12.60
2018-09-17T13:03:12.819Z,11.80
2018-09-17T13:05:40.905Z,13.13
2018-09-17T13:08:08.960Z,13.57
2018-09-17T13:10:36.929Z,10.90
2018-09-17T13:13:04.945Z,12.20
2018-09-17T13:15:36.385Z,11.60
2018-09-17T13:18:04.474Z,12.83
2018-09-17T13:20:32.473Z,11.90
2018-09-17T13:23:00.641Z,12.83
2018-09-17T13:25:29.517Z,12.00
2018-09-17T13:27:57.532Z,13.67
2018-09-17T13:30:25.606Z,13.77
2018-09-17T13:32:53.705Z,13.33
2018-09-17T13:35:21.933Z,13.00
2018-09-17T13:37:49.996Z,12.00
2018-09-17T13:40:18.025Z,13.27
2018-09-17T13:42:46.177Z,12.13
2018-09-17T13:45:14.309Z,11.60
2018-09-17T13:47:42.316Z,12.07
2018-09-17T13:50:10.425Z,10.83
2018-09-17T13:52:38.412Z,10.00
2018-09-17T13:55:06.453Z,11.47
2018-09-17T13:57:34.662Z,11.10
2018-09-17T14:00:02.942Z,10.83
2018-09-17T14:02:31.048Z,10.80
2018-09-17T14:04:58.776Z,10.40
2018-09-17T14:07:26.766Z,10.83
2018-09-17T14:09:55.176Z,10.87
2018-09-17T14:12:23.165Z,10.10
2018-09-17T14:14:51.728Z,10.10
2018-09-17T14:17:20.858Z,10.23
2018-09-17T14:19:48.833Z,10.03
2018-09-17T14:22:16.872Z,10.37
2018-09-17T14:24:44.923Z,11.30
2018-09-17T14:27:14.279Z,9.13
2018-09-17T14:29:42.847Z,10.33
2018-09-17T14:32:16.636Z,9.83
2018-09-17T14:34:44.775Z,10.30
2018-09-17T14:37:12.853Z,10.03
2018-09-17T14:39:40.921Z,10.07
2018-09-17T14:42:08.864Z,10.60
2018-09-17T14:44:36.823Z,9.90
2018-09-17T14:47:04.810Z,10.03
2018-09-17T14:49:33.356Z,9.80
2018-09-17T14:52:01.387Z,8.90
2018-09-17T14:54:29.471Z,9.27
2018-09-17T14:56:57.606Z,10.13
2018-09-17T14:59:25.633Z,10.70
2018-09-17T15:01:54.344Z,10.13
2018-09-17T15:04:22.505Z,9.37
2018-09-17T15:06:50.509Z,8.63
2018-09-17T15:09:18.560Z,8.87
2018-09-17T15:11:47.171Z,9.07
2018-09-17T15:14:15.628Z,10.33
2018-09-17T15:16:43.679Z,9.23
2018-09-17T15:19:12.173Z,9.10
2018-09-17T15:21:40.175Z,9.33
2018-09-17T15:24:08.319Z,9.57
2018-09-17T15:26:36.689Z,9.70
2018-09-17T15:29:04.762Z,9.10
2018-09-17T15:31:32.737Z,9.73
2018-09-17T15:34:01.214Z,8.50
2018-09-17T15:36:29.287Z,9.53
2018-09-17T15:38:58.389Z,9.47
2018-09-17T15:41:26.561Z,8.60
2018-09-17T15:43:55.376Z,10.37
2018-09-17T15:46:23.489Z,8.80
2018-09-17T15:48:51.391Z,8.47
2018-09-17T15:51:19.388Z,8.67
2018-09-17T15:53:47.476Z,9.53
2018-09-17T15:56:15.590Z,8.37
2018-09-17T15:58:43.581Z,7.80
2018-09-17T16:01:11.778Z,7.57
2018-09-17T16:03:39.774Z,9.53
2018-09-17T16:06:07.687Z,8.00
2018-09-17T16:08:35.962Z,7.67
2018-09-17T16:11:03.888Z,8.97
2018-09-17T16:13:32.392Z,8.20
2018-09-17T16:16:01.001Z,8.07
2018-09-17T16:18:29.028Z,8.07
2018-09-17T16:20:57.292Z,8.43
2018-09-17T16:23:25.257Z,8.20
2018-09-17T16:25:53.382Z,8.00
2018-09-17T16:28:23.013Z,9.60
2018-09-17T16:30:51.305Z,8.03
2018-09-17T16:33:19.404Z,6.87
2018-09-17T16:35:47.438Z,8.17
2018-09-17T16:38:15.440Z,7.60
2018-09-17T16:40:43.588Z,7.53
2018-09-17T16:43:11.701Z,8.50
2018-09-17T16:45:39.692Z,7.70
2018-09-17T16:48:07.718Z,9.53
2018-09-17T16:50:36.040Z,8.87
2018-09-17T16:53:04.158Z,9.70
2018-09-17T16:55:32.664Z,11.30
2018-09-17T16:58:00.725Z,7.70
2018-09-17T17:00:28.646Z,8.23
2018-09-17T17:02:56.752Z,7.53
2018-09-17T17:05:25.345Z,9.60
2018-09-17T17:07:53.670Z,8.10
2018-09-17T17:10:21.681Z,8.40
2018-09-17T17:12:50.523Z,8.73
2018-09-17T17:15:18.841Z,9.07
2018-09-17T17:17:46.886Z,12.30
2018-09-17T17:20:15.465Z,7.57
2018-09-17T17:22:43.437Z,8.87
2018-09-17T17:25:11.450Z,9.47
2018-09-17T17:27:39.813Z,9.03
2018-09-17T17:30:07.955Z,9.50
2018-09-17T17:32:36.114Z,8.70
2018-09-17T17:35:04.206Z,8.47
2018-09-17T17:37:32.630Z,9.30
2018-09-17T17:40:00.696Z,10.13
2018-09-17T17:42:28.667Z,9.70
2018-09-17T17:44:56.905Z,10.73
2018-09-17T17:47:24.961Z,10.33
2018-09-17T17:49:53.227Z,10.90
2018-09-17T17:52:21.313Z,9.47
2018-09-17T17:54:49.303Z,12.97
2018-09-17T17:57:17.236Z,13.67
2018-09-17T17:59:45.988Z,10.00
2018-09-17T18:02:14.003Z,9.07
2018-09-17T18:04:42.598Z,8.77
2018-09-17T18:07:10.645Z,9.10
2018-09-17T18:09:38.991Z,15.73
2018-09-17T18:12:07.094Z,11.33
2018-09-17T18:14:35.644Z,10.83
2018-09-17T18:17:03.590Z,10.97
2018-09-17T18:19:31.647Z,11.60
2018-09-17T18:21:59.767Z,10.30
2018-09-17T18:24:28.008Z,11.93
2018-09-17T18:26:56.237Z,10.10
2018-09-17T18:29:24.150Z,11.07
2018-09-17T18:31:52.217Z,12.03
2018-09-17T18:34:20.273Z,11.50
2018-09-17T18:36:48.310Z,11.80
2018-09-17T18:39:16.331Z,12.47
2018-09-17T18:41:44.435Z,11.93
2018-09-17T18:44:13.074Z,11.37
2018-09-17T18:46:41.039Z,10.50
2018-09-17T18:49:09.123Z,11.93
2018-09-17T18:51:37.121Z,12.40
2018-09-17T18:54:05.268Z,14.80
2018-09-17T18:56:33.389Z,13.10
2018-09-17T18:59:02.245Z,14.87
2018-09-17T19:01:30.457Z,14.23
2018-09-17T19:03:58.549Z,15.50
2018-09-17T19:06:26.611Z,16.93
2018-09-17T19:08:55.770Z,14.80
2018-09-17T19:11:23.909Z,14.57
2018-09-17T19:13:57.520Z,14.93
2018-09-17T19:16:32.149Z,14.73
2018-09-17T19:19:00.251Z,14.57
2018-09-17T19:21:34.115Z,13.23
2018-09-17T19:24:04.946Z,14.00
2018-09-17T19:26:33.025Z,13.93
2018-09-17T19:29:06.454Z,13.80
2018-09-17T19:31:34.810Z,14.20
2018-09-17T19:34:02.831Z,15.17
2018-09-17T19:36:30.985Z,14.83
2018-09-17T19:39:04.645Z,13.63
2018-09-17T19:41:32.651Z,12.90
2018-09-17T19:44:00.916Z,13.80
2018-09-17T19:46:28.900Z,13.70
2018-09-17T19:48:56.928Z,18.40
2018-09-17T19:51:31.526Z,13.10
2018-09-17T19:54:00.340Z,13.33
2018-09-17T19:56:28.601Z,13.40
2018-09-17T19:59:02.124Z,12.90
2018-09-17T20:01:30.456Z,13.37
2018-09-17T20:04:02.884Z,12.60
2018-09-17T20:06:31.013Z,13.20
2018-09-17T20:08:58.941Z,12.50
2018-09-17T20:11:27.075Z,13.00
2018-09-17T20:13:55.786Z,13.90
2018-09-17T20:16:24.111Z,12.90
2018-09-17T20:18:52.061Z,14.23
2018-09-17T20:21:20.648Z,14.40
2018-09-17T20:23:48.784Z,14.23
2018-09-17T20:26:16.832Z,15.20
2018-09-17T20:28:45.068Z,15.57
2018-09-17T20:31:13.069Z,16.53
2018-09-17T20:33:41.105Z,17.47
2018-09-17T20:36:09.256Z,18.13
2018-09-17T20:38:38.300Z,17.37
2018-09-17T20:41:06.257Z,15.97
2018-09-17T20:43:40.222Z,14.00
2018-09-17T20:46:08.321Z,15.47
2018-09-17T20:48:38.045Z,14.60
2018-09-17T20:51:06.815Z,20.47
2018-09-17T20:53:35.829Z,14.17
2018-09-17T20:56:04.325Z,11.87
2018-09-17T20:58:32.423Z,14.40
2018-09-17T21:01:00.577Z,13.50
2018-09-17T21:03:28.502Z,15.63
2018-09-17T21:05:56.481Z,15.93
2018-09-17T21:08:24.528Z,19.00
2018-09-17T21:10:52.551Z,15.33
2018-09-17T21:13:20.726Z,16.17
2018-09-17T21:15:48.788Z,15.40
2018-09-17T21:18:17.048Z,18.00
2018-09-17T21:20:45.981Z,15.93
2018-09-17T21:23:14.082Z,14.90
2018-09-17T21:25:42.672Z,15.77
2018-09-17T21:28:10.672Z,16.53
2018-09-17T21:30:38.650Z,16.40
2018-09-17T21:33:06.640Z,17.10
2018-09-17T21:35:34.730Z,16.00
2018-09-17T21:38:02.828Z,14.97
2018-09-17T21:40:30.814Z,14.60
2018-09-17T21:42:58.876Z,15.47
2018-09-17T21:45:26.944Z,17.70
2018-09-17T21:47:54.945Z,18.13
2018-09-17T21:50:23.398Z,19.37
2018-09-17T21:52:51.613Z,20.77
2018-09-17T21:55:19.586Z,19.53
2018-09-17T21:57:48.501Z,17.87
2018-09-17T22:00:17.253Z,16.90
2018-09-17T22:02:45.304Z,17.13
2018-09-17T22:05:14.177Z,19.40
2018-09-17T22:07:42.198Z,17.53
2018-09-17T22:10:10.315Z,17.60
2018-09-17T22:12:38.328Z,31.13
2018-09-17T22:15:06.347Z,16.90
2018-09-17T22:17:34.296Z,19.73
2018-09-17T22:20:02.905Z,18.47
2018-09-17T22:22:30.833Z,19.93
2018-09-17T22:24:58.830Z,17.90
2018-09-17T22:27:27.591Z,16.70
2018-09-17T22:29:55.530Z,18.03
2018-09-17T22:32:23.472Z,16.50
2018-09-17T22:34:51.506Z,18.87
2018-09-17T22:37:19.478Z,17.57
2018-09-17T22:39:48.032Z,17.10
2018-09-17T22:42:16.315Z,16.83
2018-09-17T22:44:44.185Z,17.97
2018-09-17T22:47:13.112Z,15.03
2018-09-17T22:49:41.125Z,17.53
2018-09-17T22:52:09.879Z,17.83
2018-09-17T22:54:37.907Z,16.83
2018-09-17T22:57:06.103Z,16.80
2018-09-17T22:59:34.085Z,17.67
2018-09-17T23:02:02.165Z,18.20
2018-09-17T23:04:30.212Z,17.20
2018-09-17T23:06:58.448Z,19.80
2018-09-17T23:09:26.453Z,17.60
2018-09-17T23:11:54.438Z,18.33
2018-09-17T23:14:22.556Z,18.07
2018-09-17T23:16:50.581Z,18.10
2018-09-17T23:19:19.506Z,17.80
2018-09-17T23:21:47.484Z,18.63
2018-09-17T23:24:15.533Z,18.40
2018-09-17T23:26:43.586Z,19.10
2018-09-17T23:29:11.548Z,19.10
2018-09-17T23:31:39.641Z,18.53
2018-09-17T23:34:07.724Z,17.93
2018-09-17T23:36:35.704Z,17.80
2018-09-17T23:39:06.136Z,19.67
2018-09-17T23:41:34.096Z,19.70
2018-09-17T23:44:02.284Z,21.00
2018-09-17T23:46:30.334Z,21.40
2018-09-17T23:48:58.508Z,20.17
2018-09-17T23:51:26.521Z,23.90
2018-09-17T23:53:54.552Z,21.50
2018-09-17T23:56:22.629Z,21.70
2018-09-17T23:58:50.772Z,20.60
